Time;durP1;ratioP1;P1;durP2;ratioP2;P2;SDS_P1;SDS_P2;PMS_P1;PMS_P2;Temp;Humidity;BMP_temperature;BMP_pressure;BME280_temperature;BME280_humidity;BME280_pressure;Samples;Min_cycle;Max_cycle;Signal;HPM_P1;HPM_P2
2023/02/11 00:01:24;;;;;;;;;;;;;;;-1.61;62.31;99949.34;6079617;23;19917;-82
2023/02/11 00:03:51;;;;;;;;;;;;;;;-1.58;62.34;99951.16;6078436;23;19986;-82
2023/02/11 00:06:17;;;;;;;;;;;;;;;-1.52;62.90;99947.19;6079023;23;19913;-82
2023/02/11 00:08:43;;;;;;;;;;;;;;;-1.47;62.89;99960.13;6054238;23;19917;-80
2023/02/11 00:11:13;;;;;;;;;;;;;;;-1.46;62.69;99958.47;6079447;23;19960;-80
2023/02/11 00:13:40;;;;;;;;;;;;;;;-1.51;62.49;99942.94;6078499;23;19913;-82
2023/02/11 00:16:08;;;;;;;;;;;;;;;-1.58;62.19;99948.59;6078564;23;20343;-82
2023/02/11 00:18:35;;;;;;;;;;;;;;;-1.63;62.41;99952.63;6103542;23;19913;-82
2023/02/11 00:21:06;;;;;;;;;;;;;;;-1.61;62.43;99951.88;6077933;23;19912;-81
2023/02/11 00:23:32;;;;;;;;;;;;;;;-1.62;62.46;99945.03;6102658;23;19913;-81
2023/02/11 00:25:58;;;;;;;;;;;;;;;-1.66;62.41;99950.84;6105337;23;19957;-81
2023/02/11 00:28:24;;;;;;;;;;;;;;;-1.72;62.60;99948.88;6080461;23;19917;-80
2023/02/11 00:30:55;;;;;;;;;;;;;;;-1.75;62.58;99948.72;6105369;23;19960;-82
2023/02/11 00:33:22;;;;;;;;;;;;;;;-1.76;62.55;99953.78;6105748;23;19933;-82
2023/02/11 00:35:49;;;;;;;;;;;;;;;-1.79;62.53;99958.75;6080379;23;19913;-82
2023/02/11 00:38:16;;;;;;;;;;;;;;;-1.82;62.70;99955.25;6105530;23;19920;-82
2023/02/11 00:40:43;;;;;;;;;;;;;;;-1.85;62.74;99961.91;6106250;23;20307;-80
2023/02/11 00:43:10;;;;;;;;;;;;;;;-1.85;63.13;99955.13;6080735;23;20240;-81
2023/02/11 00:45:38;;;;;;;;;;;;;;;-1.87;62.71;99948.22;6104936;23;19913;-81
2023/02/11 00:48:03;;;;;;;;;;;;;;;-1.91;63.10;99962.53;6102991;23;19936;-82
2023/02/11 00:50:32;;;;;;;;;;;;;;;-1.94;63.04;99953.84;6079048;23;19913;-81
2023/02/11 00:52:58;;;;;;;;;;;;;;;-1.97;63.18;99964.81;6107028;23;19919;-80
2023/02/11 00:55:33;;;;;;;;;;;;;;;-2.01;63.21;99955.25;6106928;23;19920;-80
2023/02/11 00:57:59;;;;;;;;;;;;;;;-2.01;63.29;99960.34;6082779;23;19912;-82
2023/02/11 01:00:25;;;;;;;;;;;;;;;-2.00;63.07;99962.09;6058847;23;19999;-82
2023/02/11 01:02:54;;;;;;;;;;;;;;;-2.03;63.06;99962.84;6058482;23;20007;-80
2023/02/11 01:05:22;;;;;;;;;;;;;;;-2.03;63.19;99967.06;6082340;23;20288;-81
2023/02/11 01:07:48;;;;;;;;;;;;;;;-2.04;63.15;99967.88;6083247;23;19937;-81
2023/02/11 01:10:16;;;;;;;;;;;;;;;-2.05;63.14;99966.13;6056721;23;19913;-81
2023/02/11 01:12:42;;;;;;;;;;;;;;;-2.05;63.20;99971.22;6108585;23;19913;-81
2023/02/11 01:15:10;;;;;;;;;;;;;;;-2.05;63.15;99969.56;6114037;23;20304;-80
2023/02/11 01:17:38;;;;;;;;;;;;;;;-2.07;63.32;99973.72;6110478;23;19921;-79
2023/02/11 01:20:07;;;;;;;;;;;;;;;-2.09;63.09;99974.44;6105455;23;19913;-81
2023/02/11 01:22:38;;;;;;;;;;;;;;;-2.12;63.15;99978.63;6082482;23;19939;-82
2023/02/11 01:25:05;;;;;;;;;;;;;;;-2.15;63.55;99983.59;6113042;23;19920;-81
2023/02/11 01:27:36;;;;;;;;;;;;;;;-2.18;63.25;99982.53;6057876;23;19980;-82
2023/02/11 01:30:04;;;;;;;;;;;;;;;-2.19;63.38;99983.34;6113348;23;20000;-82
2023/02/11 01:32:30;;;;;;;;;;;;;;;-2.22;63.41;99975.59;6083832;23;19917;-82
2023/02/11 01:34:56;;;;;;;;;;;;;;;-2.22;63.53;99985.78;6085845;23;19917;-83
2023/02/11 01:37:24;;;;;;;;;;;;;;;-2.25;63.31;99994.16;6085660;23;19924;-84
2023/02/11 01:39:52;;;;;;;;;;;;;;;-2.26;63.53;99989.84;6081051;23;19913;-84
2023/02/11 01:42:24;;;;;;;;;;;;;;;-2.31;63.28;99991.31;6107814;23;19932;-82
2023/02/11 01:44:51;;;;;;;;;;;;;;;-2.32;63.42;99993.00;6058329;23;19920;-82
2023/02/11 01:47:20;;;;;;;;;;;;;;;-2.33;63.56;99987.84;6058556;23;19913;-83
2023/02/11 01:49:58;;;;;;;;;;;;;;;-2.32;63.52;99989.59;6108339;23;20355;-83
2023/02/11 01:52:33;;;;;;;;;;;;;;;-2.35;63.50;100000.50;6083695;23;19920;-81
2023/02/11 01:57:50;;;;;;;;;;;;;;;-2.36;63.64;100000.44;6081967;23;19913;-82
2023/02/11 02:00:23;;;;;;;;;;;;;;;-2.38;63.23;99991.84;6107035;23;19999;-83
2023/02/11 02:03:00;;;;;;;;;;;;;;;-2.39;63.14;99997.75;6057088;23;19995;-82
2023/02/11 02:05:26;;;;;;;;;;;;;;;-2.41;63.65;99995.09;6106713;23;19920;-82
2023/02/11 02:07:59;;;;;;;;;;;;;;;-2.40;63.65;99990.91;6080591;23;19913;-81
2023/02/11 02:10:26;;;;;;;;;;;;;;;-2.41;63.56;100002.75;6105358;23;19920;-82
2023/02/11 02:12:53;;;;;;;;;;;;;;;-2.42;63.71;99993.38;6102893;23;19913;-84
2023/02/11 02:15:27;;;;;;;;;;;;;;;-2.46;63.20;99997.47;6079201;23;19917;-81
2023/02/11 02:18:12;;;;;;;;;;;;;;;-2.48;63.64;99996.50;6079297;23;19934;-82
2023/02/11 02:20:47;;;;;;;;;;;;;;;-2.46;63.59;99999.16;6079486;23;19940;-81
2023/02/11 02:23:26;;;;;;;;;;;;;;;-2.40;63.84;100001.09;6080713;23;19913;-81
2023/02/11 02:25:55;;;;;;;;;;;;;;;-2.34;63.99;99997.16;6080994;23;20271;-82
2023/02/11 02:29:00;;;;;;;;;;;;;;;-2.27;63.39;99993.19;6105913;23;19917;-81
2023/02/11 02:31:39;;;;;;;;;;;;;;;-2.22;63.62;99991.75;6016760;23;20013;-80
2023/02/11 02:34:31;;;;;;;;;;;;;;;-2.18;63.63;99992.75;6017231;23;19914;-81
2023/02/11 02:37:07;;;;;;;;;;;;;;;-2.16;63.65;99997.13;6032184;23;19913;-82
2023/02/11 02:39:34;;;;;;;;;;;;;;;-2.09;63.35;100003.38;6105087;23;19913;-81
2023/02/11 02:42:02;;;;;;;;;;;;;;;-2.02;63.55;99996.88;6057263;23;19913;-83
2023/02/11 02:44:31;;;;;;;;;;;;;;;-1.94;63.45;99997.22;6105098;23;19912;-82
2023/02/11 02:46:59;;;;;;;;;;;;;;;-1.83;63.53;100007.09;6107229;23;19913;-82
2023/02/11 02:49:31;;;;;;;;;;;;;;;-1.73;63.53;99997.31;6082480;23;19917;-82
2023/02/11 02:51:59;;;;;;;;;;;;;;;-1.68;63.10;100004.34;6081379;23;20235;-82
2023/02/11 02:54:43;;;;;;;;;;;;;;;-1.60;63.67;100002.13;6104530;23;19913;-83
2023/02/11 02:57:09;;;;;;;;;;;;;;;-1.56;63.14;100008.25;6056315;23;20330;-82
2023/02/11 02:59:47;;;;;;;;;;;;;;;-1.52;63.17;100013.56;6058853;23;19941;-81
2023/02/11 03:02:23;;;;;;;;;;;;;;;-1.51;62.64;100004.19;6082962;23;19917;-80
2023/02/11 03:05:08;;;;;;;;;;;;;;;-1.47;63.11;100002.66;6081785;23;19978;-81
2023/02/11 03:07:47;;;;;;;;;;;;;;;-1.43;63.00;99996.88;6107281;23;20013;-83
2023/02/11 03:10:43;;;;;;;;;;;;;;;-1.44;62.79;100000.25;6080955;23;19924;-81
2023/02/11 03:13:17;;;;;;;;;;;;;;;-1.41;62.69;99996.13;6104148;23;19912;-83
2023/02/11 03:15:50;;;;;;;;;;;;;;;-1.41;62.46;100000.34;6075416;23;19921;-85
2023/02/11 03:18:17;;;;;;;;;;;;;;;-1.38;62.78;99998.84;6075156;23;19905;-81
2023/02/11 03:20:50;;;;;;;;;;;;;;;-1.35;62.39;99998.06;6099588;23;19921;-82
2023/02/11 03:23:27;;;;;;;;;;;;;;;-1.33;62.26;99999.00;6099876;23;19905;-82
2023/02/11 03:26:06;;;;;;;;;;;;;;;-1.33;62.09;100001.56;6123150;23;19967;-81
2023/02/11 03:28:50;;;;;;;;;;;;;;;-1.31;62.30;99992.28;6099886;23;19937;-82
2023/02/11 03:31:21;;;;;;;;;;;;;;;-1.30;62.12;99993.16;6075890;23;19949;-81
2023/02/11 03:33:56;;;;;;;;;;;;;;;-1.29;61.99;99988.13;6124041;23;19901;-82
2023/02/11 03:36:26;;;;;;;;;;;;;;;-1.25;62.17;99984.00;6123345;23;19901;-81
2023/02/11 03:38:55;;;;;;;;;;;;;;;-1.24;61.92;99989.19;6099534;23;19909;-83
2023/02/11 03:41:26;;;;;;;;;;;;;;;-1.23;62.07;99987.50;6114535;23;19917;-81
2023/02/11 03:43:54;;;;;;;;;;;;;;;-1.22;62.05;99987.59;6137474;23;19933;-83
2023/02/11 03:46:24;;;;;;;;;;;;;;;-1.14;62.10;99979.34;6111728;23;19913;-80
2023/02/11 03:48:52;;;;;;;;;;;;;;;-1.13;61.96;99978.53;6098040;23;19936;-81
2023/02/11 03:51:23;;;;;;;;;;;;;;;-1.16;61.47;99981.84;6097416;23;19925;-82
2023/02/11 03:54:16;;;;;;;;;;;;;;;-1.21;61.29;99978.22;6111523;23;19924;-80
2023/02/11 03:56:55;;;;;;;;;;;;;;;-1.22;61.32;99972.25;6084845;23;19913;-82
2023/02/11 04:03:42;;;;;;;;;;;;;;;-1.15;61.19;99968.28;6101509;23;20008;-81
2023/02/11 04:06:08;;;;;;;;;;;;;;;-1.15;60.81;99969.94;6084694;23;19933;-81
2023/02/11 04:08:36;;;;;;;;;;;;;;;-1.17;61.65;99969.00;6109453;23;19917;-80
2023/02/11 04:11:02;;;;;;;;;;;;;;;-1.23;61.25;99965.41;6080188;23;19960;-82
2023/02/11 04:13:34;;;;;;;;;;;;;;;-1.31;61.20;99959.09;6055404;23;19913;-82
2023/02/11 04:16:00;;;;;;;;;;;;;;;-1.38;60.98;99965.63;6079569;23;20274;-82
2023/02/11 04:18:30;;;;;;;;;;;;;;;-1.40;61.16;99966.34;6105089;23;19913;-81
2023/02/11 04:20:58;;;;;;;;;;;;;;;-1.43;61.33;99968.78;6105601;23;19921;-81
2023/02/11 04:23:46;;;;;;;;;;;;;;;-1.52;60.57;99969.25;6056206;23;19984;-81
2023/02/11 04:26:11;;;;;;;;;;;;;;;-1.68;61.27;99968.63;6080026;23;19919;-82
2023/02/11 04:28:43;;;;;;;;;;;;;;;-1.80;61.42;99969.75;6059530;23;19919;-82
2023/02/11 04:31:10;;;;;;;;;;;;;;;-1.91;61.17;99967.63;6106836;23;19917;-81
2023/02/11 04:33:36;;;;;;;;;;;;;;;-1.98;61.15;99973.25;6059754;23;19999;-81
2023/02/11 04:36:22;;;;;;;;;;;;;;;-2.10;61.27;99965.94;6106788;23;19913;-81
2023/02/11 04:38:50;;;;;;;;;;;;;;;-2.16;61.05;99965.66;6060689;23;19912;-80
2023/02/11 04:41:15;;;;;;;;;;;;;;;-2.19;61.37;99973.16;6106986;23;19979;-81
2023/02/11 04:43:42;;;;;;;;;;;;;;;-2.25;61.23;99966.09;6058726;23;19913;-82
2023/02/11 04:46:07;;;;;;;;;;;;;;;-2.29;61.15;99961.66;6058774;23;19936;-81
2023/02/11 04:48:34;;;;;;;;;;;;;;;-2.32;61.15;99975.16;6059268;23;19913;-81
2023/02/11 04:51:03;;;;;;;;;;;;;;;-2.36;61.34;99962.22;6081701;23;19917;-81
2023/02/11 04:53:29;;;;;;;;;;;;;;;-2.38;61.43;99974.88;6107401;23;20455;-82
2023/02/11 04:55:55;;;;;;;;;;;;;;;-2.41;61.22;99977.28;6107166;23;19913;-82
2023/02/11 04:58:23;;;;;;;;;;;;;;;-2.44;61.13;99972.91;6080206;23;19913;-84
2023/02/11 05:00:51;;;;;;;;;;;;;;;-2.44;61.47;99972.91;6080433;23;19936;-80
2023/02/11 05:03:17;;;;;;;;;;;;;;;-2.40;61.20;99975.59;6080082;23;19978;-81
2023/02/11 05:05:46;;;;;;;;;;;;;;;-2.43;61.37;99972.13;6059737;23;20028;-81
2023/02/11 05:08:22;;;;;;;;;;;;;;;-2.45;61.32;99972.84;6109219;23;19913;-81
2023/02/11 05:10:51;;;;;;;;;;;;;;;-2.44;61.40;99977.16;6113287;23;19917;-82
2023/02/11 05:13:20;;;;;;;;;;;;;;;-2.36;61.35;99974.97;6084935;23;19917;-83
2023/02/11 05:15:46;;;;;;;;;;;;;;;-2.31;61.30;99971.81;6133143;23;19904;-80
2023/02/11 05:18:20;;;;;;;;;;;;;;;-2.22;61.23;99966.25;6085089;23;19917;-82
2023/02/11 05:20:56;;;;;;;;;;;;;;;;;;;;;
2023/02/11 05:24:25;;;;;;;;;;;;;;;;;;;;;
2023/02/11 05:26:55;;;;;;;;;;;;;;;-2.00;61.03;99962.09;6081731;23;20009;-82
2023/02/11 05:29:31;;;;;;;;;;;;;;;-1.93;61.11;99966.69;6109641;23;19936;-82
2023/02/11 05:32:18;;;;;;;;;;;;;;;-1.89;60.95;99968.56;6131125;23;19944;-81
2023/02/11 05:34:47;;;;;;;;;;;;;;;-1.83;61.19;99962.84;6082059;23;19948;-82
2023/02/11 05:37:15;;;;;;;;;;;;;;;-1.78;60.66;99973.25;6060533;23;19913;-86
2023/02/11 05:40:04;;;;;;;;;;;;;;;-1.70;60.56;99972.78;6059766;23;19913;-81
2023/02/11 05:45:33;;;;;;;;;;;;;;;-1.64;60.73;99969.63;6084042;23;19913;-83
2023/02/11 05:48:01;;;;;;;;;;;;;;;-1.57;60.54;99963.13;6131138;23;19913;-79
2023/02/11 05:50:35;;;;;;;;;;;;;;;-1.60;60.66;99968.09;6110398;23;19921;-83
2023/02/11 05:53:31;;;;;;;;;;;;;;;-1.56;60.95;99972.53;6111325;23;20060;-84
2023/02/11 05:56:22;;;;;;;;;;;;;;;-1.46;60.72;99968.69;6081867;23;19944;-81
2023/02/11 05:59:07;;;;;;;;;;;;;;;-1.38;60.64;99972.41;6111845;23;19929;-83
2023/02/11 06:01:42;;;;;;;;;;;;;;;-1.37;60.55;99969.06;6095836;23;19927;-83
2023/02/11 06:04:46;;;;;;;;;;;;;;;-1.34;60.32;99974.28;6064677;23;20501;-85
2023/02/11 06:07:51;;;;;;;;;;;;;;;-1.34;60.44;99973.44;6080011;23;19939;-85
2023/02/11 06:10:48;;;;;;;;;;;;;;;;;;;;;
2023/02/11 06:14:02;;;;;;;;;;;;;;;-1.33;60.62;99968.38;6076051;23;19919;-84
2023/02/11 06:17:25;;;;;;;;;;;;;;;-1.32;60.32;99966.72;6051771;23;19921;-84
2023/02/11 06:20:05;;;;;;;;;;;;;;;-1.29;60.41;99962.59;6051059;23;19994;-82
2023/02/11 06:22:33;;;;;;;;;;;;;;;-1.27;60.23;99968.63;6051929;23;19918;-81
2023/02/11 06:25:03;;;;;;;;;;;;;;;-1.24;60.60;99968.78;6078477;23;20362;-81
2023/02/11 06:27:57;;;;;;;;;;;;;;;-1.15;60.34;99962.28;6108977;23;19913;-82
2023/02/11 06:31:02;;;;;;;;;;;;;;;-1.13;60.16;99965.78;6091912;23;19921;-84
2023/02/11 06:33:49;;;;;;;;;;;;;;;-1.23;60.22;99975.63;6113093;23;19921;-83
2023/02/11 06:36:25;;;;;;;;;;;;;;;-1.26;60.74;99972.94;6109666;23;19919;-81
2023/02/11 06:39:44;;;;;;;;;;;;;;;-1.17;60.72;99972.44;6085571;23;20016;-85
2023/02/11 06:42:13;;;;;;;;;;;;;;;-1.09;60.28;99972.75;6083623;23;19936;-86
2023/02/11 06:44:57;;;;;;;;;;;;;;;-1.09;60.49;99973.63;6086397;23;19920;-84
2023/02/11 06:47:26;;;;;;;;;;;;;;;-1.10;60.08;99958.25;6064406;23;19913;-83
2023/02/11 06:49:54;;;;;;;;;;;;;;;-1.03;60.04;99973.00;6112334;23;20260;-81
2023/02/11 06:52:25;;;;;;;;;;;;;;;-0.99;60.10;99969.75;6061923;23;19917;-84
2023/02/11 06:54:53;;;;;;;;;;;;;;;-0.86;60.17;99965.16;6108020;23;19913;-81
2023/02/11 06:57:40;;;;;;;;;;;;;;;-0.42;60.81;99958.34;6109209;23;19924;-82
2023/02/11 07:03:26;;;;;;;;;;;;;;;1.38;60.78;99953.34;6083205;23;19917;-81
2023/02/11 07:06:03;;;;;;;;;;;;;;;;;;;;;
2023/02/11 07:08:49;;;;;;;;;;;;;;;4.07;57.97;99948.97;6082503;23;19917;-88
2023/02/11 07:11:25;;;;;;;;;;;;;;;5.98;56.52;99941.66;6085534;23;19917;-83
2023/02/11 07:14:24;;;;;;;;;;;;;;;6.78;53.77;99939.09;6115121;23;20259;-87
2023/02/11 07:16:59;;;;;;;;;;;;;;;6.42;53.30;99941.31;6044131;23;19913;-86
2023/02/11 07:23:30;;;;;;;;;;;;;;;7.47;50.84;99941.31;6083446;23;20358;-85
2023/02/11 07:26:30;;;;;;;;;;;;;;;7.80;50.84;99939.78;6095404;23;19943;-84
2023/02/11 07:33:36;;;;;;;;;;;;;;;9.16;46.94;99944.41;6093099;23;19929;-84
2023/02/11 07:36:02;;;;;;;;;;;;;;;8.70;47.87;99947.84;6070305;23;19920;-83
2023/02/11 07:54:34;;;;;;;;;;;;;;;7.80;44.35;99928.53;5924015;24;20023;-83
2023/02/11 07:57:02;;;;;;;;;;;;;;;7.77;45.24;99931.13;5939041;24;19915;-84
2023/02/11 07:59:29;;;;;;;;;;;;;;;8.97;45.00;99906.34;5972894;23;19914;-83
2023/02/11 08:02:21;;;;;;;;;;;;;;;9.38;44.63;99907.16;6087958;23;19913;-84
2023/02/11 08:05:17;;;;;;;;;;;;;;;11.23;43.35;99904.31;6070032;23;19928;-82
2023/02/11 08:07:44;;;;;;;;;;;;;;;11.90;41.20;99888.81;6111097;23;19913;-86
2023/02/11 08:10:33;;;;;;;;;;;;;;;12.10;39.51;99895.53;6060994;23;19956;-85
2023/02/11 08:13:06;;;;;;;;;;;;;;;12.96;39.44;99893.34;6081497;23;20386;-86
2023/02/11 08:22:45;;;;;;;;;;;;;;;11.22;38.71;99873.94;6039694;23;19920;-82
2023/02/11 08:26:49;;;;;;;;;;;;;;;12.14;37.80;99876.34;6045884;23;19938;-84
2023/02/11 08:29:32;;;;;;;;;;;;;;;13.83;36.92;99878.69;6023402;23;19941;-83
2023/02/11 08:32:04;;;;;;;;;;;;;;;14.75;35.10;99875.72;6044603;23;19913;-83
2023/02/11 08:34:36;;;;;;;;;;;;;;;15.14;34.96;99863.38;6044111;23;19914;-84
2023/02/11 08:37:05;;;;;;;;;;;;;;;14.72;34.03;99854.84;6056108;23;19914;-82
2023/02/11 08:39:32;;;;;;;;;;;;;;;14.21;34.11;99865.66;6077471;23;19988;-82
2023/02/11 08:41:59;;;;;;;;;;;;;;;14.05;33.27;99865.97;6103339;23;19913;-83
2023/02/11 08:44:25;;;;;;;;;;;;;;;12.71;34.31;99859.81;6106756;23;20204;-82
2023/02/11 08:47:05;;;;;;;;;;;;;;;10.92;34.63;99840.38;6081473;23;19925;-81
2023/02/11 08:49:32;;;;;;;;;;;;;;;9.52;36.50;99862.94;6106310;23;19941;-88
2023/02/11 08:52:02;;;;;;;;;;;;;;;8.50;37.18;99857.03;6059051;23;19944;-85
2023/02/11 08:54:42;;;;;;;;;;;;;;;7.96;38.39;99851.75;6061387;23;19941;-88
2023/02/11 08:57:45;;;;;;;;;;;;;;;7.24;38.41;99848.84;6113280;23;19917;-85
2023/02/11 09:00:37;;;;;;;;;;;;;;;6.61;38.99;99845.88;6064130;23;20421;-86
2023/02/11 09:03:23;;;;;;;;;;;;;;;5.82;39.56;99842.50;6089316;23;19913;-84
2023/02/11 09:05:51;;;;;;;;;;;;;;;5.32;39.43;99843.59;6136290;23;19928;-86
2023/02/11 09:08:35;;;;;;;;;;;;;;;4.91;39.63;99830.13;6134400;23;20487;-83
2023/02/11 09:11:14;;;;;;;;;;;;;;;;;;;;;
2023/02/11 09:18:19;;;;;;;;;;;;;;;3.22;42.22;99808.25;6114160;23;20009;-87
2023/02/11 09:20:48;;;;;;;;;;;;;;;3.04;42.86;99795.88;6124084;23;19913;-88
2023/02/11 09:23:17;;;;;;;;;;;;;;;2.95;43.05;99805.13;6076010;23;19913;-86
2023/02/11 09:25:51;;;;;;;;;;;;;;;2.83;43.13;99804.84;6100511;23;19983;-88
2023/02/11 09:28:35;;;;;;;;;;;;;;;2.67;43.93;99789.09;6121295;23;19928;-86
2023/02/11 09:31:12;;;;;;;;;;;;;;;2.46;43.68;99784.31;6067385;23;19963;-84
2023/02/11 09:33:46;;;;;;;;;;;;;;;2.27;44.13;99770.16;6093623;23;19916;-85
2023/02/11 09:36:24;;;;;;;;;;;;;;;1.94;44.09;99773.63;6096499;23;19917;-88
2023/02/11 09:39:11;;;;;;;;;;;;;;;1.67;44.95;99771.19;6076556;23;19919;-86
2023/02/11 09:41:52;;;;;;;;;;;;;;;1.61;45.37;99771.91;6096838;23;19920;-87
2023/02/11 09:44:29;;;;;;;;;;;;;;;1.79;45.76;99762.13;6126866;23;19919;-85
2023/02/11 09:50:39;;;;;;;;;;;;;;;1.68;46.32;99754.97;6105750;23;19936;-83
2023/02/11 09:53:16;;;;;;;;;;;;;;;1.74;46.53;99750.03;6099054;23;19953;-86
2023/02/11 09:55:44;;;;;;;;;;;;;;;1.72;45.92;99751.69;6127897;23;19913;-83
2023/02/11 09:58:27;;;;;;;;;;;;;;;1.69;46.54;99749.03;6125623;23;20254;-86
2023/02/11 10:01:46;;;;;;;;;;;;;;;1.41;46.52;99732.88;6131051;23;19966;-85
2023/02/11 10:04:12;;;;;;;;;;;;;;;1.28;46.61;99740.25;6101155;23;20004;-86
2023/02/11 10:06:43;;;;;;;;;;;;;;;1.22;47.45;99736.63;6126676;23;20192;-86
2023/02/11 10:09:23;;;;;;;;;;;;;;;1.15;47.59;99731.34;6075271;23;19916;-85
2023/02/11 10:12:20;;;;;;;;;;;;;;;1.04;47.89;99733.63;6110629;23;19987;-85
2023/02/11 10:15:11;;;;;;;;;;;;;;;0.92;47.96;99720.44;6104724;23;19917;-84
2023/02/11 10:17:59;;;;;;;;;;;;;;;0.90;49.10;99720.41;6107451;23;20319;-84
2023/02/11 10:21:33;;;;;;;;;;;;;;;0.82;49.68;99716.72;6108995;23;19987;-83
2023/02/11 10:24:13;;;;;;;;;;;;;;;0.81;48.73;99709.88;6078004;23;19912;-82
2023/02/11 10:26:39;;;;;;;;;;;;;;;0.77;49.62;99720.00;6155351;23;20046;-82
2023/02/11 10:29:24;;;;;;;;;;;;;;;0.73;49.83;99707.09;6107482;23;19916;-84
2023/02/11 10:31:50;;;;;;;;;;;;;;;0.75;49.35;99705.44;6101724;23;19912;-82
2023/02/11 10:34:16;;;;;;;;;;;;;;;0.73;50.22;99696.00;6108017;23;19916;-83
2023/02/11 10:36:43;;;;;;;;;;;;;;;0.76;50.60;99696.09;6156353;23;19936;-83
2023/02/11 10:39:12;;;;;;;;;;;;;;;0.81;49.60;99699.63;6157596;23;19912;-83
2023/02/11 10:41:49;;;;;;;;;;;;;;;0.84;50.34;99686.91;6128317;23;19960;-81
2023/02/11 10:44:21;;;;;;;;;;;;;;;0.89;50.37;99692.16;6103918;23;19920;-82
2023/02/11 10:47:05;;;;;;;;;;;;;;;;;;;;;
2023/02/11 10:49:40;;;;;;;;;;;;;;;1.04;50.12;99677.22;6129506;23;19922;-84
2023/02/11 10:52:39;;;;;;;;;;;;;;;1.06;50.07;99674.69;6139679;23;19967;-81
2023/02/11 10:55:14;;;;;;;;;;;;;;;1.17;50.20;99662.16;6095647;23;19912;-82
2023/02/11 10:57:43;;;;;;;;;;;;;;;1.26;51.05;99648.72;6158069;23;20354;-85
2023/02/11 11:00:28;;;;;;;;;;;;;;;1.34;50.02;99647.25;6102434;23;20322;-84
2023/02/11 11:02:58;;;;;;;;;;;;;;;1.34;50.17;99634.44;6110355;23;19912;-84
2023/02/11 11:05:44;;;;;;;;;;;;;;;1.34;51.04;99634.44;6161974;23;19912;-81
2023/02/11 11:08:18;;;;;;;;;;;;;;;1.38;50.07;99636.25;6115308;23;19917;-83
2023/02/11 11:10:46;;;;;;;;;;;;;;;1.28;50.46;99618.88;6159729;23;19919;-83
2023/02/11 11:13:31;;;;;;;;;;;;;;;1.34;50.54;99599.38;6111054;23;19940;-85
2023/02/11 11:16:16;;;;;;;;;;;;;;;1.48;51.03;99599.72;6111197;23;19912;-84
2023/02/11 11:18:45;;;;;;;;;;;;;;;1.62;51.24;99594.94;6088215;23;20330;-83
2023/02/11 11:25:22;;;;;;;;;;;;;;;1.55;50.88;99590.47;6070597;23;19913;-82
2023/02/11 11:27:53;;;;;;;;;;;;;;;1.56;51.16;99581.09;6133287;23;19991;-83
2023/02/11 11:30:28;;;;;;;;;;;;;;;1.62;51.25;99582.13;6138072;23;19922;-81
2023/02/11 11:32:55;;;;;;;;;;;;;;;1.67;50.49;99574.50;6164729;23;19913;-80
2023/02/11 11:35:25;;;;;;;;;;;;;;;1.61;50.44;99562.41;6137226;23;20261;-82
2023/02/11 11:38:12;;;;;;;;;;;;;;;1.64;51.24;99554.81;6089978;23;19920;-84
2023/02/11 11:40:39;;;;;;;;;;;;;;;1.66;50.88;99552.25;6137921;23;19923;-82
2023/02/11 11:43:19;;;;;;;;;;;;;;;1.59;51.00;99530.72;6138566;23;20304;-79
2023/02/11 11:45:55;;;;;;;;;;;;;;;1.56;51.03;99540.06;6138479;23;19956;-84
2023/02/11 11:48:30;;;;;;;;;;;;;;;1.40;50.74;99526.88;6089862;23;19916;-82
2023/02/11 11:54:35;;;;;;;;;;;;;;;1.25;51.68;99512.00;6103666;23;19913;-82
2023/02/11 11:57:21;;;;;;;;;;;;;;;1.13;51.55;99517.69;6088581;23;20254;-83
2023/02/11 12:00:24;;;;;;;;;;;;;;;;;;;;;
2023/02/11 12:03:29;;;;;;;;;;;;;;;1.11;51.17;99509.09;6166670;23;19912;-85
2023/02/11 12:06:16;;;;;;;;;;;;;;;0.97;50.76;99508.75;6146912;23;19912;-81
2023/02/11 12:09:43;;;;;;;;;;;;;;;0.80;51.06;99492.94;6139269;23;19916;-85
2023/02/11 12:12:09;;;;;;;;;;;;;;;0.70;51.51;99498.66;6139247;23;19916;-85
2023/02/11 12:14:46;;;;;;;;;;;;;;;0.43;51.09;99458.69;6146142;23;20338;-85
2023/02/11 12:17:46;;;;;;;;;;;;;;;0.58;51.73;99484.69;6143262;23;20332;-83
2023/02/11 12:20:22;;;;;;;;;;;;;;;0.56;52.00;99480.38;6171381;23;19967;-85
2023/02/11 12:23:08;;;;;;;;;;;;;;;0.55;52.37;99478.63;6147702;23;19936;-85
2023/02/11 12:26:36;;;;;;;;;;;;;;;0.55;51.32;99481.19;6183347;23;19959;-84
2023/02/11 12:29:20;;;;;;;;;;;;;;;0.57;52.00;99482.09;6124190;23;19923;-85
2023/02/11 12:32:06;;;;;;;;;;;;;;;0.53;52.22;99483.72;6172190;23;19958;-84
2023/02/11 12:34:51;;;;;;;;;;;;;;;0.42;52.00;99488.56;6172990;23;19912;-83
2023/02/11 12:38:05;;;;;;;;;;;;;;;0.31;51.22;99478.84;6129622;23;19912;-83
2023/02/11 12:41:10;;;;;;;;;;;;;;;0.24;52.39;99478.69;6141080;23;19920;-82
2023/02/11 12:44:01;;;;;;;;;;;;;;;0.19;52.28;99477.66;6172913;23;19912;-86
2023/02/11 12:47:28;;;;;;;;;;;;;;;0.18;51.63;99480.19;6080615;23;19936;-87
2023/02/11 12:50:18;;;;;;;;;;;;;;;0.12;52.06;99465.53;6203354;23;19920;-84
2023/02/11 12:53:23;;;;;;;;;;;;;;;0.03;51.85;99465.28;6152757;23;19912;-85
2023/02/11 13:03:08;;;;;;;;;;;;;;;-0.12;52.67;99435.88;6201030;23;19920;-85
2023/02/11 13:06:30;;;;;;;;;;;;;;;-0.18;52.76;99436.56;6201949;23;19912;-83
2023/02/11 13:09:20;;;;;;;;;;;;;;;-0.18;53.04;99426.31;6086078;23;19921;-87
2023/02/11 13:15:26;;;;;;;;;;;;;;;-0.33;53.49;99418.22;6200490;23;19962;-83
2023/02/11 13:18:02;;;;;;;;;;;;;;;-0.47;52.93;99398.25;6148083;23;19912;-84
2023/02/11 13:21:24;;;;;;;;;;;;;;;-0.48;53.82;99396.50;6174591;23;19935;-84
2023/02/11 13:24:04;;;;;;;;;;;;;;;-0.49;53.20;99404.13;6191183;23;19912;-81
2023/02/11 13:26:56;;;;;;;;;;;;;;;-0.56;53.65;99381.78;6170991;23;19916;-82
2023/02/11 13:29:42;;;;;;;;;;;;;;;-0.55;53.93;99371.59;6167887;23;19916;-83
2023/02/11 13:32:12;;;;;;;;;;;;;;;-0.55;53.71;99363.06;6189511;23;20625;-82
2023/02/11 13:34:44;;;;;;;;;;;;;;;-0.66;53.52;99361.03;6158772;23;19918;-83
2023/02/11 13:37:48;;;;;;;;;;;;;;;-0.68;53.86;99352.47;6136074;23;19927;-79
2023/02/11 13:40:25;;;;;;;;;;;;;;;-0.67;54.19;99343.13;6186099;23;20002;-82
2023/02/11 13:42:52;;;;;;;;;;;;;;;-0.66;53.75;99334.63;6159283;23;19912;-81
2023/02/11 13:45:27;;;;;;;;;;;;;;;-0.66;54.56;99322.72;6183775;23;19912;-81
2023/02/11 13:47:59;;;;;;;;;;;;;;;-0.70;54.50;99323.44;6158904;23;19965;-81
2023/02/11 13:50:26;;;;;;;;;;;;;;;-0.73;54.10;99318.22;6159421;23;19920;-80
2023/02/11 13:53:00;;;;;;;;;;;;;;;-0.77;54.65;99322.41;6160499;23;19962;-83
2023/02/11 13:55:29;;;;;;;;;;;;;;;-0.85;54.56;99318.75;6161555;23;19916;-82
2023/02/11 13:58:08;;;;;;;;;;;;;;;-0.89;55.19;99301.63;6135431;23;19919;-81
2023/02/11 14:00:37;;;;;;;;;;;;;;;-0.95;55.08;99291.22;6159581;23;20334;-84
2023/02/11 14:26:11;;;;;;;;;;;;;;;-1.08;56.97;99221.00;6109915;23;19996;-82
2023/02/11 14:29:02;;;;;;;;;;;;;;;;;;;;;
2023/02/11 14:31:54;;;;;;;;;;;;;;;-1.07;57.47;99199.75;6209491;23;19976;-80
2023/02/11 14:34:32;;;;;;;;;;;;;;;-1.06;57.26;99204.06;6180762;23;19920;-79
2023/02/11 14:37:11;;;;;;;;;;;;;;;-1.04;57.47;99188.75;6176069;23;19919;-81
2023/02/11 14:39:39;;;;;;;;;;;;;;;-1.03;57.91;99185.38;6173994;23;19912;-81
2023/02/11 14:42:31;;;;;;;;;;;;;;;-1.04;57.91;99189.63;6181517;23;19935;-81
2023/02/11 14:45:06;;;;;;;;;;;;;;;-1.03;58.02;99182.81;6152421;23;19904;-82
2023/02/11 14:47:39;;;;;;;;;;;;;;;-1.04;58.02;99174.31;6182875;23;19927;-83
2023/02/11 14:50:06;;;;;;;;;;;;;;;-1.04;58.32;99170.88;6202785;23;19912;-82
2023/02/11 14:52:33;;;;;;;;;;;;;;;-1.06;58.29;99187.03;6165094;23;19962;-82
2023/02/11 14:55:28;;;;;;;;;;;;;;;-1.08;58.70;99167.38;6136573;23;19911;-82
2023/02/11 14:58:13;;;;;;;;;;;;;;;-1.08;58.67;99160.56;6135969;23;20285;-81
2023/02/11 15:00:51;;;;;;;;;;;;;;;-1.08;59.10;99152.91;6156497;23;19927;-83
2023/02/11 15:03:26;;;;;;;;;;;;;;;-1.06;59.14;99153.81;6182196;23;19916;-81
2023/02/11 15:05:57;;;;;;;;;;;;;;;-1.11;59.34;99147.75;6160878;23;19919;-82
2023/02/11 15:08:23;;;;;;;;;;;;;;;-1.16;58.93;99148.41;6164164;23;19919;-82
2023/02/11 15:10:49;;;;;;;;;;;;;;;-1.16;59.70;99143.31;6164952;23;19912;-82
2023/02/11 15:13:17;;;;;;;;;;;;;;;-1.14;59.94;99134.00;6146726;23;19923;-84
2023/02/11 15:15:45;;;;;;;;;;;;;;;-1.16;59.64;99112.66;6122374;23;19918;-82
2023/02/11 15:18:23;;;;;;;;;;;;;;;-1.14;60.06;99108.47;6162457;23;19912;-80
2023/02/11 15:20:49;;;;;;;;;;;;;;;-1.17;60.26;99099.06;6189049;23;20245;-82
2023/02/11 15:23:23;;;;;;;;;;;;;;;-1.22;60.08;99121.91;6142528;23;19923;-82
2023/02/11 15:25:55;;;;;;;;;;;;;;;-1.22;60.56;99105.72;6168026;23;20359;-82